sensor_id;sensor_type;location;lat;lon;timestamp;pressure;altitude;pressure_sealevel;temperature;humidity
45323;BME280;31382;50.200;8.674;2023-11-21T00:01:18;99678.44;;;11.54;76.06
45323;BME280;31382;50.200;8.674;2023-11-21T00:06:19;99670.56;;;11.52;76.65
45323;BME280;31382;50.200;8.674;2023-11-21T00:11:21;99671.59;;;11.51;76.02
45323;BME280;31382;50.200;8.674;2023-11-21T00:16:23;99676.78;;;11.52;76.30
45323;BME280;31382;50.200;8.674;2023-11-21T00:21:25;99664.38;;;11.58;76.17
45323;BME280;31382;50.200;8.674;2023-11-21T00:26:26;99670.19;;;11.62;76.13
45323;BME280;31382;50.200;8.674;2023-11-21T00:31:28;99677.88;;;11.65;76.13
45323;BME280;31382;50.200;8.674;2023-11-21T00:36:29;99683.88;;;11.67;76.31
45323;BME280;31382;50.200;8.674;2023-11-21T00:41:31;99677.09;;;11.71;76.14
45323;BME280;31382;50.200;8.674;2023-11-21T00:46:32;99668.56;;;11.67;76.88
45323;BME280;31382;50.200;8.674;2023-11-21T00:51:34;99672.28;;;11.66;76.88
45323;BME280;31382;50.200;8.674;2023-11-21T00:56:36;99683.50;;;11.70;76.39
45323;BME280;31382;50.200;8.674;2023-11-21T01:01:37;99672.69;;;11.63;76.68
45323;BME280;31382;50.200;8.674;2023-11-21T01:06:39;99682.22;;;11.59;76.81
45323;BME280;31382;50.200;8.674;2023-11-21T01:11:40;99681.78;;;11.62;76.77
45323;BME280;31382;50.200;8.674;2023-11-21T01:16:42;99693.78;;;11.60;76.94
45323;BME280;31382;50.200;8.674;2023-11-21T01:21:43;99692.13;;;11.59;76.97
45323;BME280;31382;50.200;8.674;2023-11-21T01:26:44;99694.94;;;11.44;77.69
45323;BME280;31382;50.200;8.674;2023-11-21T01:31:47;99703.25;;;11.49;77.38
45323;BME280;31382;50.200;8.674;2023-11-21T01:36:49;99696.94;;;11.35;78.18
45323;BME280;31382;50.200;8.674;2023-11-21T01:41:50;99698.22;;;11.39;78.17
45323;BME280;31382;50.200;8.674;2023-11-21T01:46:53;99706.72;;;11.43;77.39
45323;BME280;31382;50.200;8.674;2023-11-21T01:51:55;99704.09;;;11.49;77.39
45323;BME280;31382;50.200;8.674;2023-11-21T01:56:58;99696.81;;;11.43;77.78
45323;BME280;31382;50.200;8.674;2023-11-21T02:02:05;99704.47;;;11.46;77.88
45323;BME280;31382;50.200;8.674;2023-11-21T02:07:06;99714.00;;;11.49;77.49
45323;BME280;31382;50.200;8.674;2023-11-21T02:12:08;99722.34;;;11.54;77.39
45323;BME280;31382;50.200;8.674;2023-11-21T02:17:12;99724.84;;;11.56;77.69
45323;BME280;31382;50.200;8.674;2023-11-21T02:22:14;99715.72;;;11.57;77.63
45323;BME280;31382;50.200;8.674;2023-11-21T02:27:18;99727.38;;;11.64;77.82
45323;BME280;31382;50.200;8.674;2023-11-21T02:32:23;99732.34;;;11.67;77.33
45323;BME280;31382;50.200;8.674;2023-11-21T02:37:27;99717.66;;;11.69;77.32
45323;BME280;31382;50.200;8.674;2023-11-21T02:42:28;99720.56;;;11.68;78.02
45323;BME280;31382;50.200;8.674;2023-11-21T02:47:30;99726.31;;;11.65;77.87
45323;BME280;31382;50.200;8.674;2023-11-21T02:52:31;99722.81;;;11.64;77.99
45323;BME280;31382;50.200;8.674;2023-11-21T02:57:34;99726.13;;;11.66;77.54
45323;BME280;31382;50.200;8.674;2023-11-21T03:02:35;99725.50;;;11.64;77.66
45323;BME280;31382;50.200;8.674;2023-11-21T03:07:41;99732.56;;;11.65;77.53
45323;BME280;31382;50.200;8.674;2023-11-21T03:12:43;99726.53;;;11.63;78.02
45323;BME280;31382;50.200;8.674;2023-11-21T03:17:45;99726.94;;;11.67;77.78
45323;BME280;31382;50.200;8.674;2023-11-21T03:22:47;99732.16;;;11.68;77.58
45323;BME280;31382;50.200;8.674;2023-11-21T03:27:48;99734.00;;;11.61;77.95
45323;BME280;31382;50.200;8.674;2023-11-21T03:32:50;99739.41;;;11.68;77.45
45323;BME280;31382;50.200;8.674;2023-11-21T03:37:51;99748.72;;;11.65;77.79
45323;BME280;31382;50.200;8.674;2023-11-21T03:42:53;99752.66;;;11.69;77.55
45323;BME280;31382;50.200;8.674;2023-11-21T03:47:54;99756.34;;;11.62;77.68
45323;BME280;31382;50.200;8.674;2023-11-21T03:52:56;99760.91;;;11.61;77.72
45323;BME280;31382;50.200;8.674;2023-11-21T03:57:58;99766.28;;;11.61;77.63
45323;BME280;31382;50.200;8.674;2023-11-21T04:03:00;99767.75;;;11.64;77.45
45323;BME280;31382;50.200;8.674;2023-11-21T04:08:01;99769.41;;;11.65;77.87
45323;BME280;31382;50.200;8.674;2023-11-21T04:13:03;99771.91;;;11.66;77.89
45323;BME280;31382;50.200;8.674;2023-11-21T04:18:04;99778.72;;;11.62;77.47
45323;BME280;31382;50.200;8.674;2023-11-21T04:23:06;99775.56;;;11.59;77.86
45323;BME280;31382;50.200;8.674;2023-11-21T04:28:07;99788.59;;;11.55;78.02
45323;BME280;31382;50.200;8.674;2023-11-21T04:33:09;99792.94;;;11.56;78.18
45323;BME280;31382;50.200;8.674;2023-11-21T04:38:10;99793.34;;;11.53;77.67
45323;BME280;31382;50.200;8.674;2023-11-21T04:43:12;99808.22;;;11.49;78.27
45323;BME280;31382;50.200;8.674;2023-11-21T04:48:13;99824.31;;;11.42;78.08
45323;BME280;31382;50.200;8.674;2023-11-21T04:53:15;99814.97;;;11.38;77.96
45323;BME280;31382;50.200;8.674;2023-11-21T04:58:17;99821.19;;;11.39;78.21
45323;BME280;31382;50.200;8.674;2023-11-21T05:03:18;99822.56;;;11.28;78.10
45323;BME280;31382;50.200;8.674;2023-11-21T05:08:20;99829.41;;;11.30;78.18
45323;BME280;31382;50.200;8.674;2023-11-21T05:13:23;99832.34;;;11.36;78.35
45323;BME280;31382;50.200;8.674;2023-11-21T05:18:29;99843.31;;;11.34;77.90
45323;BME280;31382;50.200;8.674;2023-11-21T05:23:31;99851.38;;;11.34;78.15
45323;BME280;31382;50.200;8.674;2023-11-21T05:28:32;99864.56;;;11.29;77.95
45323;BME280;31382;50.200;8.674;2023-11-21T05:33:34;99865.16;;;11.24;78.42
45323;BME280;31382;50.200;8.674;2023-11-21T05:38:36;99866.75;;;11.19;78.09
45323;BME280;31382;50.200;8.674;2023-11-21T05:43:37;99872.41;;;11.24;78.30
45323;BME280;31382;50.200;8.674;2023-11-21T05:48:39;99875.28;;;11.22;78.24
45323;BME280;31382;50.200;8.674;2023-11-21T05:53:40;99883.94;;;11.18;78.07
45323;BME280;31382;50.200;8.674;2023-11-21T05:58:42;99883.19;;;11.09;78.41
45323;BME280;31382;50.200;8.674;2023-11-21T06:03:43;99892.09;;;11.09;78.61
45323;BME280;31382;50.200;8.674;2023-11-21T06:08:45;99898.13;;;11.11;78.13
45323;BME280;31382;50.200;8.674;2023-11-21T06:13:46;99907.22;;;11.10;78.32
45323;BME280;31382;50.200;8.674;2023-11-21T06:18:49;99914.66;;;11.08;78.52
45323;BME280;31382;50.200;8.674;2023-11-21T06:23:50;99922.97;;;11.14;77.63
45323;BME280;31382;50.200;8.674;2023-11-21T06:28:54;99926.25;;;11.09;78.36
45323;BME280;31382;50.200;8.674;2023-11-21T06:33:56;99937.00;;;11.09;77.67
45323;BME280;31382;50.200;8.674;2023-11-21T06:38:57;99936.75;;;11.04;77.89
45323;BME280;31382;50.200;8.674;2023-11-21T06:43:59;99942.78;;;11.06;77.76
45323;BME280;31382;50.200;8.674;2023-11-21T06:49:00;99960.44;;;11.15;77.41
45323;BME280;31382;50.200;8.674;2023-11-21T06:54:02;99961.72;;;11.19;77.33
45323;BME280;31382;50.200;8.674;2023-11-21T06:59:03;99970.44;;;11.21;77.18
45323;BME280;31382;50.200;8.674;2023-11-21T07:04:07;99983.38;;;11.11;77.35
45323;BME280;31382;50.200;8.674;2023-11-21T07:09:09;99990.78;;;11.09;77.18
45323;BME280;31382;50.200;8.674;2023-11-21T07:14:10;100000.34;;;11.11;76.86
45323;BME280;31382;50.200;8.674;2023-11-21T07:19:13;100005.53;;;11.13;77.11
45323;BME280;31382;50.200;8.674;2023-11-21T07:24:15;100011.56;;;11.15;77.19
45323;BME280;31382;50.200;8.674;2023-11-21T07:29:17;100019.38;;;11.10;76.89
45323;BME280;31382;50.200;8.674;2023-11-21T07:34:22;100022.97;;;11.17;76.93
45323;BME280;31382;50.200;8.674;2023-11-21T07:39:23;100020.91;;;11.19;77.02
45323;BME280;31382;50.200;8.674;2023-11-21T07:44:25;100027.59;;;11.23;76.37
45323;BME280;31382;50.200;8.674;2023-11-21T07:49:27;100028.34;;;11.32;76.61
45323;BME280;31382;50.200;8.674;2023-11-21T07:54:28;100034.34;;;11.34;76.38
45323;BME280;31382;50.200;8.674;2023-11-21T07:59:30;100047.13;;;11.47;76.28
45323;BME280;31382;50.200;8.674;2023-11-21T08:04:31;100045.72;;;11.51;75.81
45323;BME280;31382;50.200;8.674;2023-11-21T08:09:35;100055.06;;;11.55;75.78
45323;BME280;31382;50.200;8.674;2023-11-21T08:14:36;100057.78;;;11.55;76.29
45323;BME280;31382;50.200;8.674;2023-11-21T08:19:40;100065.47;;;11.58;75.62
45323;BME280;31382;50.200;8.674;2023-11-21T08:24:42;100080.31;;;11.69;75.67
45323;BME280;31382;50.200;8.674;2023-11-21T08:29:44;100075.38;;;11.73;75.90
45323;BME280;31382;50.200;8.674;2023-11-21T08:34:45;100089.69;;;11.73;75.59
45323;BME280;31382;50.200;8.674;2023-11-21T08:39:49;100083.78;;;11.84;75.43
45323;BME280;31382;50.200;8.674;2023-11-21T08:44:50;100088.72;;;11.96;74.90
45323;BME280;31382;50.200;8.674;2023-11-21T08:49:52;100102.50;;;12.07;74.97
45323;BME280;31382;50.200;8.674;2023-11-21T08:54:54;100111.69;;;12.13;74.88
45323;BME280;31382;50.200;8.674;2023-11-21T08:59:58;100115.59;;;12.10;74.93
45323;BME280;31382;50.200;8.674;2023-11-21T09:05:00;100120.72;;;12.27;74.44
45323;BME280;31382;50.200;8.674;2023-11-21T09:10:05;100119.03;;;12.26;74.38
45323;BME280;31382;50.200;8.674;2023-11-21T09:15:08;100127.25;;;12.18;73.98
45323;BME280;31382;50.200;8.674;2023-11-21T09:20:11;100143.19;;;12.13;74.03
45323;BME280;31382;50.200;8.674;2023-11-21T09:25:13;100152.53;;;11.95;73.98
45323;BME280;31382;50.200;8.674;2023-11-21T09:30:14;100147.88;;;11.74;74.00
45323;BME280;31382;50.200;8.674;2023-11-21T09:35:16;100149.09;;;11.71;73.87
45323;BME280;31382;50.200;8.674;2023-11-21T09:40:22;100156.72;;;11.68;74.17
45323;BME280;31382;50.200;8.674;2023-11-21T09:45:26;100154.22;;;11.66;73.68
45323;BME280;31382;50.200;8.674;2023-11-21T09:50:27;100165.63;;;11.68;74.01
45323;BME280;31382;50.200;8.674;2023-11-21T09:55:30;100166.75;;;11.74;73.90
45323;BME280;31382;50.200;8.674;2023-11-21T10:00:37;100166.63;;;11.82;74.09
45323;BME280;31382;50.200;8.674;2023-11-21T10:05:44;100172.19;;;11.81;73.73
45323;BME280;31382;50.200;8.674;2023-11-21T10:10:49;100166.06;;;12.02;73.57
45323;BME280;31382;50.200;8.674;2023-11-21T10:15:53;100179.84;;;12.28;73.36
45323;BME280;31382;50.200;8.674;2023-11-21T10:20:55;100182.28;;;12.45;73.38
45323;BME280;31382;50.200;8.674;2023-11-21T10:25:57;100195.31;;;12.63;73.27
45323;BME280;31382;50.200;8.674;2023-11-21T10:31:11;100192.09;;;12.74;72.90
45323;BME280;31382;50.200;8.674;2023-11-21T10:36:24;100195.81;;;12.73;72.47
45323;BME280;31382;50.200;8.674;2023-11-21T10:41:26;100199.22;;;12.82;72.60
45323;BME280;31382;50.200;8.674;2023-11-21T10:46:27;100192.84;;;12.89;71.92
45323;BME280;31382;50.200;8.674;2023-11-21T10:51:29;100189.44;;;13.09;71.57
45323;BME280;31382;50.200;8.674;2023-11-21T10:56:30;100188.25;;;13.40;70.95
45323;BME280;31382;50.200;8.674;2023-11-21T11:01:36;100186.75;;;13.72;70.14
45323;BME280;31382;50.200;8.674;2023-11-21T11:06:38;100179.38;;;14.01;69.67
45323;BME280;31382;50.200;8.674;2023-11-21T11:11:40;100185.72;;;14.28;69.26
45323;BME280;31382;50.200;8.674;2023-11-21T11:16:53;100180.53;;;14.46;68.53
45323;BME280;31382;50.200;8.674;2023-11-21T11:32:29;100178.31;;;14.83;67.68
45323;BME280;31382;50.200;8.674;2023-11-21T11:37:35;100176.44;;;14.91;67.38
45323;BME280;31382;50.200;8.674;2023-11-21T11:42:37;100186.63;;;15.02;67.05
45323;BME280;31382;50.200;8.674;2023-11-21T11:47:38;100182.69;;;15.11;66.46
45323;BME280;31382;50.200;8.674;2023-11-21T11:52:46;100192.44;;;15.12;66.33
45323;BME280;31382;50.200;8.674;2023-11-21T11:57:56;100193.94;;;15.15;66.13
45323;BME280;31382;50.200;8.674;2023-11-21T12:02:59;100187.47;;;15.09;66.22
45323;BME280;31382;50.200;8.674;2023-11-21T12:08:06;100199.31;;;15.08;66.13
45323;BME280;31382;50.200;8.674;2023-11-21T12:13:09;100201.22;;;14.94;66.15
45323;BME280;31382;50.200;8.674;2023-11-21T12:18:12;100209.31;;;14.81;66.17
45323;BME280;31382;50.200;8.674;2023-11-21T12:23:13;100214.94;;;14.66;66.35
45323;BME280;31382;50.200;8.674;2023-11-21T12:28:16;100216.38;;;14.62;66.67
45323;BME280;31382;50.200;8.674;2023-11-21T12:33:18;100222.81;;;14.61;66.54
45323;BME280;31382;50.200;8.674;2023-11-21T12:38:20;100231.72;;;14.48;66.33
45323;BME280;31382;50.200;8.674;2023-11-21T12:43:22;100228.59;;;14.44;66.25
45323;BME280;31382;50.200;8.674;2023-11-21T12:48:24;100247.91;;;14.35;66.09
45323;BME280;31382;50.200;8.674;2023-11-21T12:53:26;100252.69;;;14.33;66.22
45323;BME280;31382;50.200;8.674;2023-11-21T12:58:27;100256.19;;;14.20;66.15
45323;BME280;31382;50.200;8.674;2023-11-21T13:03:30;100252.50;;;14.41;65.76
45323;BME280;31382;50.200;8.674;2023-11-21T13:08:32;100257.91;;;14.41;65.68
45323;BME280;31382;50.200;8.674;2023-11-21T13:13:34;100255.25;;;14.47;65.49
45323;BME280;31382;50.200;8.674;2023-11-21T13:18:36;100259.41;;;14.50;65.33
45323;BME280;31382;50.200;8.674;2023-11-21T13:23:39;100258.53;;;14.43;65.63
45323;BME280;31382;50.200;8.674;2023-11-21T13:28:42;100272.44;;;14.33;65.76
45323;BME280;31382;50.200;8.674;2023-11-21T13:33:49;100276.13;;;14.19;66.17
45323;BME280;31382;50.200;8.674;2023-11-21T13:38:58;100290.06;;;14.16;66.15
45323;BME280;31382;50.200;8.674;2023-11-21T13:44:00;100285.63;;;14.01;66.31
45323;BME280;31382;50.200;8.674;2023-11-21T13:49:16;100296.59;;;13.93;66.71
45323;BME280;31382;50.200;8.674;2023-11-21T13:54:19;100309.44;;;13.84;66.78
45323;BME280;31382;50.200;8.674;2023-11-21T13:59:22;100308.81;;;13.82;66.74
45323;BME280;31382;50.200;8.674;2023-11-21T14:04:29;100312.53;;;13.81;66.99
45323;BME280;31382;50.200;8.674;2023-11-21T14:09:49;100311.75;;;13.59;67.44
45323;BME280;31382;50.200;8.674;2023-11-21T14:14:51;100310.88;;;13.52;67.62
45323;BME280;31382;50.200;8.674;2023-11-21T14:19:52;100320.84;;;13.52;67.73
45323;BME280;31382;50.200;8.674;2023-11-21T14:24:56;100323.50;;;13.45;67.98
45323;BME280;31382;50.200;8.674;2023-11-21T14:30:01;100325.25;;;13.31;68.30
45323;BME280;31382;50.200;8.674;2023-11-21T14:35:02;100333.97;;;13.12;68.58
45323;BME280;31382;50.200;8.674;2023-11-21T14:40:05;100338.91;;;12.86;69.40
45323;BME280;31382;50.200;8.674;2023-11-21T14:45:09;100335.53;;;12.63;70.31
45323;BME280;31382;50.200;8.674;2023-11-21T14:50:13;100333.88;;;12.62;70.04
45323;BME280;31382;50.200;8.674;2023-11-21T14:55:33;100348.94;;;12.56;70.12
45323;BME280;31382;50.200;8.674;2023-11-21T15:00:58;100361.81;;;12.09;71.18
45323;BME280;31382;50.200;8.674;2023-11-21T15:06:02;100362.06;;;11.85;71.71
45323;BME280;31382;50.200;8.674;2023-11-21T15:11:23;100366.09;;;11.81;71.81
45323;BME280;31382;50.200;8.674;2023-11-21T15:16:32;100371.91;;;11.93;71.88
45323;BME280;31382;50.200;8.674;2023-11-21T15:21:34;100376.94;;;11.96;71.43
45323;BME280;31382;50.200;8.674;2023-11-21T15:26:35;100377.94;;;11.95;71.67
45323;BME280;31382;50.200;8.674;2023-11-21T15:31:37;100384.84;;;11.97;71.66
45323;BME280;31382;50.200;8.674;2023-11-21T15:36:39;100390.44;;;12.10;71.56
45323;BME280;31382;50.200;8.674;2023-11-21T15:41:41;100392.94;;;12.12;71.49
45323;BME280;31382;50.200;8.674;2023-11-21T15:46:43;100393.78;;;12.13;71.39
45323;BME280;31382;50.200;8.674;2023-11-21T15:51:45;100391.91;;;12.13;71.53
45323;BME280;31382;50.200;8.674;2023-11-21T15:56:48;100398.31;;;12.12;71.91
45323;BME280;31382;50.200;8.674;2023-11-21T16:01:50;100407.91;;;12.15;71.64
45323;BME280;31382;50.200;8.674;2023-11-21T16:06:52;100402.97;;;12.18;71.62
45323;BME280;31382;50.200;8.674;2023-11-21T16:11:54;100407.63;;;12.09;71.64
45323;BME280;31382;50.200;8.674;2023-11-21T16:17:03;100418.88;;;12.13;71.74
45323;BME280;31382;50.200;8.674;2023-11-21T16:22:05;100423.69;;;12.18;71.88
45323;BME280;31382;50.200;8.674;2023-11-21T16:27:07;100430.22;;;12.23;71.34
45323;BME280;31382;50.200;8.674;2023-11-21T16:32:12;100438.13;;;12.25;71.46
45323;BME280;31382;50.200;8.674;2023-11-21T16:37:13;100441.81;;;12.24;71.55
45323;BME280;31382;50.200;8.674;2023-11-21T16:42:15;100448.59;;;12.20;72.15
45323;BME280;31382;50.200;8.674;2023-11-21T16:47:17;100456.94;;;12.10;72.29
45323;BME280;31382;50.200;8.674;2023-11-21T16:52:20;100459.44;;;11.97;72.54
45323;BME280;31382;50.200;8.674;2023-11-21T16:57:24;100479.22;;;11.81;73.00
45323;BME280;31382;50.200;8.674;2023-11-21T17:02:25;100487.78;;;11.84;72.55
45323;BME280;31382;50.200;8.674;2023-11-21T17:07:27;100492.59;;;11.97;72.45
45323;BME280;31382;50.200;8.674;2023-11-21T17:12:30;100492.44;;;11.99;72.25
45323;BME280;31382;50.200;8.674;2023-11-21T17:17:31;100495.47;;;11.96;71.96
45323;BME280;31382;50.200;8.674;2023-11-21T17:22:33;100511.53;;;11.89;72.40
45323;BME280;31382;50.200;8.674;2023-11-21T17:27:35;100516.25;;;11.87;72.73
45323;BME280;31382;50.200;8.674;2023-11-21T17:32:37;100519.09;;;11.85;72.43
45323;BME280;31382;50.200;8.674;2023-11-21T17:37:39;100532.41;;;11.87;72.20
45323;BME280;31382;50.200;8.674;2023-11-21T17:42:41;100538.94;;;11.93;72.46
45323;BME280;31382;50.200;8.674;2023-11-21T17:47:43;100535.06;;;11.95;72.32
45323;BME280;31382;50.200;8.674;2023-11-21T17:52:44;100535.56;;;11.90;72.28
45323;BME280;31382;50.200;8.674;2023-11-21T17:57:46;100551.59;;;11.84;72.33
45323;BME280;31382;50.200;8.674;2023-11-21T18:02:47;100555.31;;;11.83;72.68
45323;BME280;31382;50.200;8.674;2023-11-21T18:07:49;100562.06;;;11.79;72.54
45323;BME280;31382;50.200;8.674;2023-11-21T18:12:52;100571.41;;;11.68;72.35
45323;BME280;31382;50.200;8.674;2023-11-21T18:17:54;100601.50;;;11.71;72.66
45323;BME280;31382;50.200;8.674;2023-11-21T18:22:55;100596.44;;;11.45;72.33
45323;BME280;31382;50.200;8.674;2023-11-21T18:27:57;100618.56;;;11.24;72.45
45323;BME280;31382;50.200;8.674;2023-11-21T18:32:58;100625.34;;;11.04;72.59
45323;BME280;31382;50.200;8.674;2023-11-21T18:38:00;100627.75;;;10.82;72.87
45323;BME280;31382;50.200;8.674;2023-11-21T18:43:02;100646.41;;;10.76;72.66
45323;BME280;31382;50.200;8.674;2023-11-21T18:48:03;100657.34;;;10.58;72.20
45323;BME280;31382;50.200;8.674;2023-11-21T18:53:05;100676.31;;;10.40;71.88
45323;BME280;31382;50.200;8.674;2023-11-21T18:58:07;100690.84;;;10.12;71.88
45323;BME280;31382;50.200;8.674;2023-11-21T19:03:08;100697.00;;;9.97;71.62
45323;BME280;31382;50.200;8.674;2023-11-21T19:08:13;100711.94;;;9.91;71.40
45323;BME280;31382;50.200;8.674;2023-11-21T19:13:15;100718.75;;;9.77;71.23
45323;BME280;31382;50.200;8.674;2023-11-21T19:18:19;100743.41;;;9.72;71.17
45323;BME280;31382;50.200;8.674;2023-11-21T19:23:20;100749.59;;;9.65;70.70
45323;BME280;31382;50.200;8.674;2023-11-21T19:28:22;100758.44;;;9.57;70.71
45323;BME280;31382;50.200;8.674;2023-11-21T19:33:23;100763.44;;;9.52;70.79
45323;BME280;31382;50.200;8.674;2023-11-21T19:38:27;100770.97;;;9.48;70.29
45323;BME280;31382;50.200;8.674;2023-11-21T19:43:29;100779.97;;;9.39;70.46
45323;BME280;31382;50.200;8.674;2023-11-21T19:48:32;100780.97;;;9.38;70.38
45323;BME280;31382;50.200;8.674;2023-11-21T19:53:34;100793.84;;;9.35;70.37
45323;BME280;31382;50.200;8.674;2023-11-21T19:58:38;100802.59;;;9.37;70.10
45323;BME280;31382;50.200;8.674;2023-11-21T20:03:42;100817.09;;;9.26;70.41
45323;BME280;31382;50.200;8.674;2023-11-21T20:08:44;100811.72;;;9.26;70.01
45323;BME280;31382;50.200;8.674;2023-11-21T20:13:48;100814.88;;;9.21;69.83
45323;BME280;31382;50.200;8.674;2023-11-21T20:18:50;100830.69;;;9.24;69.89
45323;BME280;31382;50.200;8.674;2023-11-21T20:23:51;100850.13;;;9.26;69.58
45323;BME280;31382;50.200;8.674;2023-11-21T20:28:56;100850.75;;;9.20;69.41
45323;BME280;31382;50.200;8.674;2023-11-21T20:33:57;100871.50;;;9.18;69.38
45323;BME280;31382;50.200;8.674;2023-11-21T20:38:59;100870.53;;;9.19;69.38
45323;BME280;31382;50.200;8.674;2023-11-21T20:44:00;100880.25;;;9.20;69.19
45323;BME280;31382;50.200;8.674;2023-11-21T20:49:03;100893.69;;;9.20;69.13
45323;BME280;31382;50.200;8.674;2023-11-21T20:54:04;100900.25;;;9.26;69.11
45323;BME280;31382;50.200;8.674;2023-11-21T20:59:06;100907.44;;;9.25;68.66
45323;BME280;31382;50.200;8.674;2023-11-21T21:04:08;100911.16;;;9.24;68.85
45323;BME280;31382;50.200;8.674;2023-11-21T21:09:10;100911.03;;;9.16;69.06
45323;BME280;31382;50.200;8.674;2023-11-21T21:14:12;100924.09;;;9.11;68.88
45323;BME280;31382;50.200;8.674;2023-11-21T21:19:13;100920.72;;;9.09;69.05
45323;BME280;31382;50.200;8.674;2023-11-21T21:24:15;100926.84;;;9.01;68.67
45323;BME280;31382;50.200;8.674;2023-11-21T21:29:16;100940.72;;;8.97;68.72
45323;BME280;31382;50.200;8.674;2023-11-21T21:34:18;100942.69;;;8.95;68.69
45323;BME280;31382;50.200;8.674;2023-11-21T21:39:19;100946.97;;;8.87;68.81
45323;BME280;31382;50.200;8.674;2023-11-21T21:44:21;100955.50;;;8.73;68.88
45323;BME280;31382;50.200;8.674;2023-11-21T21:49:24;100974.31;;;8.63;69.09
45323;BME280;31382;50.200;8.674;2023-11-21T21:54:25;100981.09;;;8.58;69.21
45323;BME280;31382;50.200;8.674;2023-11-21T21:59:28;100982.28;;;8.45;69.34
45323;BME280;31382;50.200;8.674;2023-11-21T22:04:29;100976.47;;;8.40;69.59
45323;BME280;31382;50.200;8.674;2023-11-21T22:09:33;100987.09;;;8.32;69.45
45323;BME280;31382;50.200;8.674;2023-11-21T22:14:35;101008.53;;;8.32;69.68
45323;BME280;31382;50.200;8.674;2023-11-21T22:19:36;101002.47;;;8.20;69.88
45323;BME280;31382;50.200;8.674;2023-11-21T22:24:38;101010.09;;;8.15;69.65
45323;BME280;31382;50.200;8.674;2023-11-21T22:29:39;101023.34;;;8.07;70.09
45323;BME280;31382;50.200;8.674;2023-11-21T22:34:42;101022.09;;;7.91;70.16
45323;BME280;31382;50.200;8.674;2023-11-21T22:39:43;101030.69;;;7.85;70.18
45323;BME280;31382;50.200;8.674;2023-11-21T22:44:45;101030.44;;;7.79;69.83
45323;BME280;31382;50.200;8.674;2023-11-21T22:49:46;101041.41;;;7.66;70.22
45323;BME280;31382;50.200;8.674;2023-11-21T22:54:48;101065.06;;;7.51;70.48
45323;BME280;31382;50.200;8.674;2023-11-21T22:59:50;101063.78;;;7.45;69.97
45323;BME280;31382;50.200;8.674;2023-11-21T23:04:51;101071.66;;;7.37;70.00
45323;BME280;31382;50.200;8.674;2023-11-21T23:09:53;101064.31;;;7.29;69.83
45323;BME280;31382;50.200;8.674;2023-11-21T23:14:54;101072.47;;;7.28;70.28
45323;BME280;31382;50.200;8.674;2023-11-21T23:19:56;101082.00;;;7.21;70.38
45323;BME280;31382;50.200;8.674;2023-11-21T23:24:57;101081.69;;;7.14;69.86
45323;BME280;31382;50.200;8.674;2023-11-21T23:29:59;101071.81;;;7.05;70.29
45323;BME280;31382;50.200;8.674;2023-11-21T23:35:00;101074.97;;;6.89;70.40
45323;BME280;31382;50.200;8.674;2023-11-21T23:40:02;101075.81;;;6.80;70.38
45323;BME280;31382;50.200;8.674;2023-11-21T23:45:08;101080.50;;;6.66;70.26
45323;BME280;31382;50.200;8.674;2023-11-21T23:50:10;101088.94;;;6.62;70.90
45323;BME280;31382;50.200;8.674;2023-11-21T23:55:11;101081.00;;;6.50;70.67
